sensor_id;sensor_type;location;lat;lon;timestamp;P1;durP1;ratioP1;P2;durP2;ratioP2
75408;SDS011;63979;55.644;37.734;2023-01-16T00:00:20;21.50;;;8.38;;
75408;SDS011;63979;55.644;37.734;2023-01-16T00:05:22;18.45;;;8.40;;
75408;SDS011;63979;55.644;37.734;2023-01-16T00:10:22;8.77;;;5.22;;
75408;SDS011;63979;55.644;37.734;2023-01-16T00:15:23;11.80;;;6.00;;
75408;SDS011;63979;55.644;37.734;2023-01-16T00:20:24;12.25;;;4.20;;
75408;SDS011;63979;55.644;37.734;2023-01-16T00:25:25;14.32;;;7.22;;
75408;SDS011;63979;55.644;37.734;2023-01-16T00:30:26;6.97;;;4.22;;
75408;SDS011;63979;55.644;37.734;2023-01-16T00:35:27;12.13;;;6.30;;
75408;SDS011;63979;55.644;37.734;2023-01-16T00:40:28;12.98;;;6.15;;
75408;SDS011;63979;55.644;37.734;2023-01-16T00:45:29;11.40;;;5.13;;
75408;SDS011;63979;55.644;37.734;2023-01-16T00:50:30;11.98;;;5.40;;
75408;SDS011;63979;55.644;37.734;2023-01-16T00:55:34;16.77;;;5.78;;
75408;SDS011;63979;55.644;37.734;2023-01-16T01:00:38;9.30;;;4.70;;
75408;SDS011;63979;55.644;37.734;2023-01-16T01:05:39;7.03;;;4.25;;
75408;SDS011;63979;55.644;37.734;2023-01-16T01:10:40;15.25;;;5.32;;
75408;SDS011;63979;55.644;37.734;2023-01-16T01:15:41;10.18;;;3.72;;
75408;SDS011;63979;55.644;37.734;2023-01-16T01:20:41;24.25;;;9.85;;
75408;SDS011;63979;55.644;37.734;2023-01-16T01:25:43;13.82;;;4.80;;
75408;SDS011;63979;55.644;37.734;2023-01-16T01:30:44;10.27;;;5.22;;
75408;SDS011;63979;55.644;37.734;2023-01-16T01:35:46;9.73;;;5.05;;
75408;SDS011;63979;55.644;37.734;2023-01-16T01:40:46;9.00;;;4.82;;
75408;SDS011;63979;55.644;37.734;2023-01-16T01:45:51;10.38;;;6.07;;
75408;SDS011;63979;55.644;37.734;2023-01-16T01:50:56;8.32;;;4.35;;
75408;SDS011;63979;55.644;37.734;2023-01-16T01:56:05;13.93;;;5.30;;
75408;SDS011;63979;55.644;37.734;2023-01-16T02:01:29;8.63;;;3.72;;
75408;SDS011;63979;55.644;37.734;2023-01-16T02:06:33;12.27;;;5.28;;
75408;SDS011;63979;55.644;37.734;2023-01-16T02:11:56;9.45;;;4.97;;
75408;SDS011;63979;55.644;37.734;2023-01-16T02:17:04;13.63;;;6.13;;
75408;SDS011;63979;55.644;37.734;2023-01-16T02:22:40;10.60;;;5.55;;
75408;SDS011;63979;55.644;37.734;2023-01-16T02:50:03;7.90;;;4.57;;
75408;SDS011;63979;55.644;37.734;2023-01-16T02:55:23;10.23;;;5.07;;
75408;SDS011;63979;55.644;37.734;2023-01-16T03:00:33;16.02;;;5.45;;
75408;SDS011;63979;55.644;37.734;2023-01-16T03:05:38;13.75;;;4.50;;
75408;SDS011;63979;55.644;37.734;2023-01-16T03:16:25;19.33;;;6.40;;
75408;SDS011;63979;55.644;37.734;2023-01-16T03:22:12;5.07;;;2.90;;
75408;SDS011;63979;55.644;37.734;2023-01-16T03:27:07;9.82;;;3.42;;
75408;SDS011;63979;55.644;37.734;2023-01-16T03:32:22;8.55;;;3.55;;
75408;SDS011;63979;55.644;37.734;2023-01-16T03:37:32;24.33;;;9.02;;
75408;SDS011;63979;55.644;37.734;2023-01-16T03:47:48;13.25;;;5.93;;
75408;SDS011;63979;55.644;37.734;2023-01-16T03:52:56;12.07;;;4.13;;
75408;SDS011;63979;55.644;37.734;2023-01-16T03:58:03;10.27;;;3.97;;
75408;SDS011;63979;55.644;37.734;2023-01-16T04:03:10;15.60;;;4.72;;
75408;SDS011;63979;55.644;37.734;2023-01-16T04:08:22;16.83;;;6.45;;
75408;SDS011;63979;55.644;37.734;2023-01-16T04:13:31;16.70;;;8.10;;
75408;SDS011;63979;55.644;37.734;2023-01-16T04:18:37;15.50;;;6.88;;
75408;SDS011;63979;55.644;37.734;2023-01-16T04:23:38;24.80;;;5.72;;
75408;SDS011;63979;55.644;37.734;2023-01-16T04:28:39;14.30;;;4.57;;
75408;SDS011;63979;55.644;37.734;2023-01-16T04:33:40;16.65;;;5.53;;
75408;SDS011;63979;55.644;37.734;2023-01-16T04:38:42;12.23;;;4.13;;
75408;SDS011;63979;55.644;37.734;2023-01-16T04:43:43;17.63;;;7.65;;
75408;SDS011;63979;55.644;37.734;2023-01-16T04:48:44;19.67;;;5.72;;
75408;SDS011;63979;55.644;37.734;2023-01-16T04:53:44;17.80;;;6.57;;
75408;SDS011;63979;55.644;37.734;2023-01-16T04:58:45;9.13;;;3.85;;
75408;SDS011;63979;55.644;37.734;2023-01-16T05:03:47;11.65;;;4.32;;
75408;SDS011;63979;55.644;37.734;2023-01-16T05:08:48;13.98;;;6.38;;
75408;SDS011;63979;55.644;37.734;2023-01-16T05:13:49;11.52;;;6.22;;
75408;SDS011;63979;55.644;37.734;2023-01-16T05:18:50;23.38;;;6.40;;
75408;SDS011;63979;55.644;37.734;2023-01-16T05:23:51;29.95;;;7.75;;
75408;SDS011;63979;55.644;37.734;2023-01-16T05:28:52;12.77;;;4.05;;
75408;SDS011;63979;55.644;37.734;2023-01-16T05:33:54;14.00;;;4.75;;
75408;SDS011;63979;55.644;37.734;2023-01-16T05:38:55;11.88;;;4.45;;
75408;SDS011;63979;55.644;37.734;2023-01-16T05:43:56;16.38;;;4.47;;
75408;SDS011;63979;55.644;37.734;2023-01-16T05:48:57;16.70;;;5.70;;
75408;SDS011;63979;55.644;37.734;2023-01-16T05:53:58;14.88;;;5.13;;
75408;SDS011;63979;55.644;37.734;2023-01-16T05:58:59;18.17;;;6.50;;
75408;SDS011;63979;55.644;37.734;2023-01-16T06:04:00;11.27;;;4.55;;
75408;SDS011;63979;55.644;37.734;2023-01-16T06:09:01;6.95;;;3.65;;
75408;SDS011;63979;55.644;37.734;2023-01-16T06:14:02;15.57;;;6.88;;
75408;SDS011;63979;55.644;37.734;2023-01-16T06:19:05;13.35;;;5.28;;
75408;SDS011;63979;55.644;37.734;2023-01-16T06:24:06;15.73;;;5.85;;
75408;SDS011;63979;55.644;37.734;2023-01-16T06:29:08;8.43;;;5.38;;
75408;SDS011;63979;55.644;37.734;2023-01-16T06:34:10;16.30;;;5.70;;
75408;SDS011;63979;55.644;37.734;2023-01-16T06:39:11;8.48;;;4.40;;
75408;SDS011;63979;55.644;37.734;2023-01-16T06:44:13;17.33;;;6.05;;
75408;SDS011;63979;55.644;37.734;2023-01-16T06:49:14;13.63;;;5.80;;
75408;SDS011;63979;55.644;37.734;2023-01-16T06:54:15;9.82;;;5.43;;
75408;SDS011;63979;55.644;37.734;2023-01-16T06:59:15;13.13;;;5.82;;
75408;SDS011;63979;55.644;37.734;2023-01-16T07:04:16;13.57;;;5.10;;
75408;SDS011;63979;55.644;37.734;2023-01-16T07:09:17;12.80;;;5.43;;
75408;SDS011;63979;55.644;37.734;2023-01-16T07:14:19;21.40;;;6.50;;
75408;SDS011;63979;55.644;37.734;2023-01-16T07:19:38;12.65;;;4.82;;
75408;SDS011;63979;55.644;37.734;2023-01-16T07:24:57;9.00;;;4.68;;
75408;SDS011;63979;55.644;37.734;2023-01-16T07:30:00;15.18;;;5.45;;
75408;SDS011;63979;55.644;37.734;2023-01-16T07:35:01;14.52;;;5.57;;
75408;SDS011;63979;55.644;37.734;2023-01-16T07:40:03;5.82;;;4.07;;
75408;SDS011;63979;55.644;37.734;2023-01-16T07:45:05;7.25;;;4.50;;
75408;SDS011;63979;55.644;37.734;2023-01-16T07:50:07;8.35;;;3.75;;
75408;SDS011;63979;55.644;37.734;2023-01-16T07:55:09;8.75;;;4.47;;
75408;SDS011;63979;55.644;37.734;2023-01-16T08:00:10;20.38;;;4.80;;
75408;SDS011;63979;55.644;37.734;2023-01-16T08:05:13;11.88;;;3.88;;
75408;SDS011;63979;55.644;37.734;2023-01-16T08:10:14;18.13;;;7.78;;
75408;SDS011;63979;55.644;37.734;2023-01-16T08:15:15;11.07;;;5.03;;
75408;SDS011;63979;55.644;37.734;2023-01-16T08:20:15;12.40;;;7.43;;
75408;SDS011;63979;55.644;37.734;2023-01-16T08:25:22;6.03;;;3.28;;
75408;SDS011;63979;55.644;37.734;2023-01-16T08:30:24;14.52;;;5.07;;
75408;SDS011;63979;55.644;37.734;2023-01-16T08:35:25;4.75;;;3.58;;
75408;SDS011;63979;55.644;37.734;2023-01-16T08:40:26;4.07;;;2.83;;
75408;SDS011;63979;55.644;37.734;2023-01-16T08:45:29;10.60;;;3.65;;
75408;SDS011;63979;55.644;37.734;2023-01-16T08:50:48;8.60;;;2.53;;
75408;SDS011;63979;55.644;37.734;2023-01-16T08:56:15;11.88;;;5.18;;
75408;SDS011;63979;55.644;37.734;2023-01-16T09:01:16;6.00;;;2.45;;
75408;SDS011;63979;55.644;37.734;2023-01-16T09:06:18;6.93;;;2.45;;
75408;SDS011;63979;55.644;37.734;2023-01-16T09:11:19;10.95;;;3.83;;
75408;SDS011;63979;55.644;37.734;2023-01-16T09:16:38;13.85;;;5.95;;
75408;SDS011;63979;55.644;37.734;2023-01-16T09:21:39;10.43;;;7.07;;
75408;SDS011;63979;55.644;37.734;2023-01-16T09:26:40;12.02;;;5.00;;
75408;SDS011;63979;55.644;37.734;2023-01-16T09:31:41;4.15;;;2.20;;
75408;SDS011;63979;55.644;37.734;2023-01-16T09:36:42;9.85;;;4.65;;
75408;SDS011;63979;55.644;37.734;2023-01-16T09:41:56;6.55;;;2.90;;
75408;SDS011;63979;55.644;37.734;2023-01-16T09:47:33;8.98;;;4.07;;
75408;SDS011;63979;55.644;37.734;2023-01-16T09:52:36;6.38;;;3.47;;
75408;SDS011;63979;55.644;37.734;2023-01-16T09:58:00;3.33;;;2.15;;
75408;SDS011;63979;55.644;37.734;2023-01-16T10:03:24;5.20;;;2.95;;
75408;SDS011;63979;55.644;37.734;2023-01-16T10:08:30;9.23;;;3.35;;
75408;SDS011;63979;55.644;37.734;2023-01-16T10:29:53;11.32;;;3.92;;
75408;SDS011;63979;55.644;37.734;2023-01-16T10:40:13;6.68;;;3.78;;
75408;SDS011;63979;55.644;37.734;2023-01-16T10:45:19;4.53;;;2.88;;
75408;SDS011;63979;55.644;37.734;2023-01-16T10:50:42;10.18;;;4.57;;
75408;SDS011;63979;55.644;37.734;2023-01-16T10:55:44;11.20;;;5.95;;
75408;SDS011;63979;55.644;37.734;2023-01-16T11:00:48;7.63;;;3.05;;
75408;SDS011;63979;55.644;37.734;2023-01-16T11:05:54;8.60;;;4.40;;
75408;SDS011;63979;55.644;37.734;2023-01-16T11:11:22;6.53;;;2.08;;
75408;SDS011;63979;55.644;37.734;2023-01-16T11:16:42;10.65;;;4.93;;
75408;SDS011;63979;55.644;37.734;2023-01-16T11:22:01;9.25;;;4.07;;
75408;SDS011;63979;55.644;37.734;2023-01-16T11:27:12;3.22;;;2.00;;
75408;SDS011;63979;55.644;37.734;2023-01-16T11:37:26;12.77;;;3.40;;
75408;SDS011;63979;55.644;37.734;2023-01-16T11:42:29;6.07;;;3.00;;
75408;SDS011;63979;55.644;37.734;2023-01-16T11:47:52;4.78;;;2.67;;
75408;SDS011;63979;55.644;37.734;2023-01-16T11:52:55;3.35;;;2.65;;
75408;SDS011;63979;55.644;37.734;2023-01-16T11:58:02;6.68;;;3.40;;
75408;SDS011;63979;55.644;37.734;2023-01-16T12:14:40;5.07;;;2.50;;
75408;SDS011;63979;55.644;37.734;2023-01-16T12:19:47;5.38;;;2.55;;
75408;SDS011;63979;55.644;37.734;2023-01-16T12:25:00;5.60;;;2.30;;
75408;SDS011;63979;55.644;37.734;2023-01-16T12:35:28;6.53;;;4.10;;
75408;SDS011;63979;55.644;37.734;2023-01-16T12:52:04;10.98;;;6.30;;
75408;SDS011;63979;55.644;37.734;2023-01-16T13:07:59;5.57;;;3.65;;
75408;SDS011;63979;55.644;37.734;2023-01-16T13:13:16;11.90;;;3.80;;
75408;SDS011;63979;55.644;37.734;2023-01-16T13:28:37;13.10;;;4.53;;
75408;SDS011;63979;55.644;37.734;2023-01-16T13:33:53;11.38;;;4.75;;
75408;SDS011;63979;55.644;37.734;2023-01-16T13:39:12;16.35;;;6.88;;
75408;SDS011;63979;55.644;37.734;2023-01-16T13:44:23;10.77;;;5.18;;
75408;SDS011;63979;55.644;37.734;2023-01-16T13:50:02;18.83;;;6.95;;
75408;SDS011;63979;55.644;37.734;2023-01-16T13:55:20;17.45;;;6.60;;
75408;SDS011;63979;55.644;37.734;2023-01-16T14:00:29;8.70;;;5.15;;
75408;SDS011;63979;55.644;37.734;2023-01-16T14:10:41;6.45;;;3.80;;
75408;SDS011;63979;55.644;37.734;2023-01-16T14:15:43;11.00;;;5.88;;
75408;SDS011;63979;55.644;37.734;2023-01-16T14:21:20;6.50;;;3.28;;
75408;SDS011;63979;55.644;37.734;2023-01-16T14:26:32;9.07;;;4.40;;
75408;SDS011;63979;55.644;37.734;2023-01-16T14:32:00;13.25;;;6.28;;
75408;SDS011;63979;55.644;37.734;2023-01-16T14:37:10;16.67;;;7.68;;
75408;SDS011;63979;55.644;37.734;2023-01-16T14:42:23;8.57;;;3.53;;
75408;SDS011;63979;55.644;37.734;2023-01-16T14:47:52;10.48;;;5.88;;
75408;SDS011;63979;55.644;37.734;2023-01-16T14:53:26;13.13;;;5.95;;
75408;SDS011;63979;55.644;37.734;2023-01-16T14:58:58;23.25;;;8.75;;
75408;SDS011;63979;55.644;37.734;2023-01-16T15:04:04;9.45;;;5.63;;
75408;SDS011;63979;55.644;37.734;2023-01-16T15:09:08;14.50;;;5.25;;
75408;SDS011;63979;55.644;37.734;2023-01-16T15:14:16;24.13;;;11.55;;
75408;SDS011;63979;55.644;37.734;2023-01-16T15:19:35;13.45;;;5.60;;
75408;SDS011;63979;55.644;37.734;2023-01-16T15:24:56;13.30;;;7.38;;
75408;SDS011;63979;55.644;37.734;2023-01-16T15:30:06;19.20;;;6.15;;
75408;SDS011;63979;55.644;37.734;2023-01-16T15:35:19;18.70;;;7.68;;
75408;SDS011;63979;55.644;37.734;2023-01-16T15:40:24;18.92;;;6.97;;
75408;SDS011;63979;55.644;37.734;2023-01-16T15:45:27;8.60;;;4.35;;
75408;SDS011;63979;55.644;37.734;2023-01-16T15:50:54;9.80;;;5.38;;
75408;SDS011;63979;55.644;37.734;2023-01-16T15:56:01;15.55;;;6.47;;
75408;SDS011;63979;55.644;37.734;2023-01-16T16:01:05;15.77;;;5.40;;
75408;SDS011;63979;55.644;37.734;2023-01-16T16:06:07;14.48;;;6.78;;
75408;SDS011;63979;55.644;37.734;2023-01-16T16:11:14;9.57;;;4.70;;
75408;SDS011;63979;55.644;37.734;2023-01-16T16:16:37;13.57;;;4.57;;
75408;SDS011;63979;55.644;37.734;2023-01-16T16:21:56;13.60;;;4.40;;
75408;SDS011;63979;55.644;37.734;2023-01-16T16:27:19;16.80;;;7.32;;
75408;SDS011;63979;55.644;37.734;2023-01-16T16:32:22;11.25;;;5.18;;
75408;SDS011;63979;55.644;37.734;2023-01-16T16:37:23;17.25;;;5.18;;
75408;SDS011;63979;55.644;37.734;2023-01-16T16:47:30;13.88;;;6.20;;
75408;SDS011;63979;55.644;37.734;2023-01-16T16:52:34;19.42;;;10.40;;
75408;SDS011;63979;55.644;37.734;2023-01-16T16:57:42;13.40;;;5.68;;
75408;SDS011;63979;55.644;37.734;2023-01-16T17:02:47;14.00;;;6.80;;
75408;SDS011;63979;55.644;37.734;2023-01-16T17:07:50;14.38;;;6.50;;
75408;SDS011;63979;55.644;37.734;2023-01-16T17:12:51;16.35;;;8.38;;
75408;SDS011;63979;55.644;37.734;2023-01-16T17:17:52;18.92;;;8.50;;
75408;SDS011;63979;55.644;37.734;2023-01-16T17:22:59;14.85;;;7.57;;
75408;SDS011;63979;55.644;37.734;2023-01-16T17:28:00;21.10;;;8.85;;
75408;SDS011;63979;55.644;37.734;2023-01-16T17:33:05;16.50;;;8.68;;
75408;SDS011;63979;55.644;37.734;2023-01-16T17:38:16;15.63;;;7.28;;
75408;SDS011;63979;55.644;37.734;2023-01-16T17:43:20;17.55;;;7.40;;
75408;SDS011;63979;55.644;37.734;2023-01-16T17:48:40;15.00;;;7.43;;
75408;SDS011;63979;55.644;37.734;2023-01-16T17:53:42;10.00;;;5.35;;
75408;SDS011;63979;55.644;37.734;2023-01-16T17:58:44;11.23;;;4.18;;
75408;SDS011;63979;55.644;37.734;2023-01-16T18:03:46;9.93;;;4.90;;
75408;SDS011;63979;55.644;37.734;2023-01-16T18:09:11;17.38;;;8.77;;
75408;SDS011;63979;55.644;37.734;2023-01-16T18:14:13;24.05;;;11.07;;
75408;SDS011;63979;55.644;37.734;2023-01-16T18:19:33;16.08;;;7.47;;
75408;SDS011;63979;55.644;37.734;2023-01-16T18:24:38;19.75;;;9.38;;
75408;SDS011;63979;55.644;37.734;2023-01-16T18:29:41;21.95;;;10.30;;
75408;SDS011;63979;55.644;37.734;2023-01-16T18:34:43;21.45;;;11.13;;
75408;SDS011;63979;55.644;37.734;2023-01-16T18:39:44;11.15;;;6.72;;
75408;SDS011;63979;55.644;37.734;2023-01-16T18:45:04;25.45;;;11.80;;
75408;SDS011;63979;55.644;37.734;2023-01-16T18:50:25;15.88;;;9.57;;
75408;SDS011;63979;55.644;37.734;2023-01-16T18:55:44;26.45;;;12.95;;
75408;SDS011;63979;55.644;37.734;2023-01-16T19:01:04;22.13;;;10.95;;
75408;SDS011;63979;55.644;37.734;2023-01-16T19:06:24;21.33;;;12.70;;
75408;SDS011;63979;55.644;37.734;2023-01-16T19:11:25;21.83;;;11.10;;
75408;SDS011;63979;55.644;37.734;2023-01-16T19:16:26;19.88;;;7.97;;
75408;SDS011;63979;55.644;37.734;2023-01-16T19:21:45;19.42;;;9.55;;
75408;SDS011;63979;55.644;37.734;2023-01-16T19:26:46;27.23;;;12.73;;
75408;SDS011;63979;55.644;37.734;2023-01-16T19:31:48;25.40;;;12.55;;
75408;SDS011;63979;55.644;37.734;2023-01-16T19:36:50;21.20;;;10.65;;
75408;SDS011;63979;55.644;37.734;2023-01-16T19:41:51;17.23;;;10.50;;
75408;SDS011;63979;55.644;37.734;2023-01-16T19:47:11;25.27;;;14.63;;
75408;SDS011;63979;55.644;37.734;2023-01-16T19:52:12;22.30;;;9.23;;
75408;SDS011;63979;55.644;37.734;2023-01-16T19:57:16;15.63;;;7.65;;
75408;SDS011;63979;55.644;37.734;2023-01-16T20:02:24;24.52;;;9.70;;
75408;SDS011;63979;55.644;37.734;2023-01-16T20:07:26;16.00;;;8.45;;
75408;SDS011;63979;55.644;37.734;2023-01-16T20:12:26;13.43;;;8.35;;
75408;SDS011;63979;55.644;37.734;2023-01-16T20:17:29;22.02;;;10.63;;
75408;SDS011;63979;55.644;37.734;2023-01-16T20:22:32;23.20;;;8.75;;
75408;SDS011;63979;55.644;37.734;2023-01-16T20:27:36;14.63;;;9.02;;
75408;SDS011;63979;55.644;37.734;2023-01-16T20:32:41;19.65;;;8.00;;
75408;SDS011;63979;55.644;37.734;2023-01-16T20:37:41;12.35;;;7.72;;
75408;SDS011;63979;55.644;37.734;2023-01-16T20:42:42;20.98;;;10.77;;
75408;SDS011;63979;55.644;37.734;2023-01-16T20:48:02;14.38;;;8.48;;
75408;SDS011;63979;55.644;37.734;2023-01-16T20:53:03;17.70;;;9.23;;
75408;SDS011;63979;55.644;37.734;2023-01-16T20:58:05;21.17;;;9.68;;
75408;SDS011;63979;55.644;37.734;2023-01-16T21:03:07;17.08;;;8.30;;
75408;SDS011;63979;55.644;37.734;2023-01-16T21:08:11;19.80;;;10.18;;
75408;SDS011;63979;55.644;37.734;2023-01-16T21:13:12;19.02;;;10.38;;
75408;SDS011;63979;55.644;37.734;2023-01-16T21:18:31;28.33;;;13.20;;
75408;SDS011;63979;55.644;37.734;2023-01-16T21:24:12;13.52;;;6.70;;
75408;SDS011;63979;55.644;37.734;2023-01-16T21:29:13;23.05;;;9.63;;
75408;SDS011;63979;55.644;37.734;2023-01-16T21:34:14;16.85;;;8.52;;
75408;SDS011;63979;55.644;37.734;2023-01-16T21:39:15;13.27;;;7.90;;
75408;SDS011;63979;55.644;37.734;2023-01-16T21:44:17;27.13;;;13.25;;
75408;SDS011;63979;55.644;37.734;2023-01-16T21:49:36;21.90;;;10.32;;
75408;SDS011;63979;55.644;37.734;2023-01-16T21:54:37;16.13;;;7.03;;
75408;SDS011;63979;55.644;37.734;2023-01-16T21:59:38;20.02;;;10.52;;
75408;SDS011;63979;55.644;37.734;2023-01-16T22:04:39;18.90;;;8.48;;
75408;SDS011;63979;55.644;37.734;2023-01-16T22:09:40;25.80;;;12.63;;
75408;SDS011;63979;55.644;37.734;2023-01-16T22:14:41;20.92;;;8.77;;
75408;SDS011;63979;55.644;37.734;2023-01-16T22:20:00;21.08;;;12.95;;
75408;SDS011;63979;55.644;37.734;2023-01-16T22:25:24;16.30;;;8.27;;
75408;SDS011;63979;55.644;37.734;2023-01-16T22:30:26;18.10;;;7.28;;
75408;SDS011;63979;55.644;37.734;2023-01-16T22:35:27;16.88;;;8.32;;
75408;SDS011;63979;55.644;37.734;2023-01-16T22:40:28;19.20;;;10.65;;
75408;SDS011;63979;55.644;37.734;2023-01-16T22:45:29;15.93;;;8.18;;
75408;SDS011;63979;55.644;37.734;2023-01-16T22:50:48;17.42;;;8.48;;
75408;SDS011;63979;55.644;37.734;2023-01-16T22:55:55;12.57;;;6.60;;
75408;SDS011;63979;55.644;37.734;2023-01-16T23:00:56;12.82;;;6.53;;
75408;SDS011;63979;55.644;37.734;2023-01-16T23:06:00;16.30;;;7.75;;
75408;SDS011;63979;55.644;37.734;2023-01-16T23:11:08;16.98;;;7.90;;
75408;SDS011;63979;55.644;37.734;2023-01-16T23:16:14;15.85;;;7.65;;
75408;SDS011;63979;55.644;37.734;2023-01-16T23:21:15;10.93;;;5.85;;
75408;SDS011;63979;55.644;37.734;2023-01-16T23:26:16;17.75;;;6.97;;
75408;SDS011;63979;55.644;37.734;2023-01-16T23:31:17;12.40;;;5.82;;
75408;SDS011;63979;55.644;37.734;2023-01-16T23:36:23;18.45;;;8.73;;
75408;SDS011;63979;55.644;37.734;2023-01-16T23:41:26;27.33;;;12.40;;
75408;SDS011;63979;55.644;37.734;2023-01-16T23:46:48;12.90;;;7.38;;
75408;SDS011;63979;55.644;37.734;2023-01-16T23:51:49;15.02;;;6.85;;
75408;SDS011;63979;55.644;37.734;2023-01-16T23:56:50;15.25;;;6.78;;
